Euskara    
Meteorología y climatología de Navarra
Datos de la estación - Meteo Navarra

Estación de Getadar GN

Altitud 710 m.


Datos desde el 18/10/2020 hasta el 19/10/2020 en horario solar
Los datos son PROVISIONALES

Anterior Página 1 de 1 Siguiente Descargar: Formato para Excel 2000 o superior   Formato csv   Formato para OpenOffice Calc
Fecha Temperatura Humedad relativa Radiación global Insolación Precipitación Vel. viento 10 m Vel. viento 10 m Dir. viento 10 m
°C % W/m² s l/m² m/s km/h °
18/10/2020 0:00 7.2 73 0.0 0 0.0 1.9 6.8 10
18/10/2020 0:10 6.5 78 0.0 0 0.0 2.1 7.6 14
18/10/2020 0:20 6.3 80 0.0 0 0.0 2.1 7.6 12
18/10/2020 0:30 6.3 81 0.0 0 0.0 2.1 7.5 11
18/10/2020 0:40 6.3 81 0.0 0 0.0 1.5 5.4 358
18/10/2020 0:50 6.7 80 0.0 0 0.0 1.3 4.6 360
18/10/2020 1:00 7.0 75 0.0 0 0.0 1.0 3.7 320
18/10/2020 1:10 7.1 73 0.0 0 0.0 1.5 5.5 323
18/10/2020 1:20 6.2 77 0.0 0 0.0 2.1 7.4 354
18/10/2020 1:30 5.5 81 0.0 0 0.0 2.4 8.6 5
18/10/2020 1:40 5.6 80 0.0 0 0.0 2.4 8.7 7
18/10/2020 1:50 5.7 77 0.0 0 0.0 1.7 6.1 355
18/10/2020 2:00 5.9 74 0.0 0 0.0 1.6 5.7 360
18/10/2020 2:10 5.6 77 0.0 0 0.0 1.7 6.0 3
18/10/2020 2:20 5.1 79 0.0 0 0.0 1.7 6.3 5
18/10/2020 2:30 5.2 77 0.0 0 0.0 1.7 5.9 10
18/10/2020 2:40 5.3 77 0.0 0 0.0 2.1 7.6 12
18/10/2020 2:50 5.0 79 0.0 0 0.0 1.8 6.5 11
18/10/2020 3:00 5.3 77 0.0 0 0.0 1.5 5.5 3
18/10/2020 3:10 6.1 72 0.0 0 0.0 1.8 6.5 350
18/10/2020 3:20 6.4 70 0.0 0 0.0 1.8 6.5 4
18/10/2020 3:30 6.5 70 0.0 0 0.0 1.7 5.9 358
18/10/2020 3:40 6.0 73 0.0 0 0.0 1.3 4.7 6
18/10/2020 3:50 6.1 71 0.0 0 0.0 0.5 1.9 185
18/10/2020 4:00 6.1 71 0.0 0 0.0 0.0 0.0 0
18/10/2020 4:10 5.5 75 0.0 0 0.0 1.4 5.1 18
18/10/2020 4:20 4.8 79 0.0 0 0.0 1.5 5.5 4
18/10/2020 4:30 4.6 80 0.0 0 0.0 1.6 5.9 9
18/10/2020 4:40 5.0 79 0.0 0 0.0 1.9 6.8 9
18/10/2020 4:50 4.8 80 0.0 0 0.0 2.2 8.0 3
18/10/2020 5:00 4.7 81 0.0 0 0.0 1.2 4.3 43
18/10/2020 5:10 4.7 80 0.0 0 0.0 0.2 0.6 127
18/10/2020 5:20 4.5 81 0.0 0 0.0 0.1 0.3 357
18/10/2020 5:30 4.3 82 0.0 0 0.0 1.1 3.8 341
18/10/2020 5:40 3.7 85 0.0 0 0.0 2.1 7.6 8
18/10/2020 5:50 3.6 86 0.0 0 0.0 1.8 6.4 12
18/10/2020 6:00 4.1 84 0.0 0 0.0 0.6 2.0 24
18/10/2020 6:10 4.4 81 0.0 0 0.0 0.1 0.4 30
18/10/2020 6:20 4.5 80 6.0 0 0.0 0.1 0.5 325
18/10/2020 6:30 4.8 79 18.4 0 0.0 0.2 0.6 348
18/10/2020 6:40 4.7 81 25.9 50 0.0 0.2 0.7 354
18/10/2020 6:50 4.8 80 39.2 600 0.0 0.0 0.0 0
18/10/2020 7:00 5.0 80 73.4 600 0.0 0.0 0.0 0
18/10/2020 7:10 5.3 79 96.3 600 0.0 0.0 0.0 214
18/10/2020 7:20 5.6 80 131.1 600 0.0 0.0 0.0 0
18/10/2020 7:30 6.0 80 145.6 600 0.0 0.0 0.0 160
18/10/2020 7:40 6.1 78 157.1 600 0.0 0.0 0.0 0
18/10/2020 7:50 6.4 78 133.3 282 0.0 0.0 0.0 0
18/10/2020 8:00 6.3 77 165.8 374 0.0 0.2 0.5 205
18/10/2020 8:10 7.0 73 278.9 600 0.0 0.4 1.3 201
18/10/2020 8:20 7.4 72 299.9 600 0.0 0.3 1.2 202
18/10/2020 8:30 7.8 72 302.0 600 0.0 0.1 0.3 190
18/10/2020 8:40 8.1 73 318.6 600 0.0 0.7 2.5 185
18/10/2020 8:50 7.6 74 185.1 162 0.0 1.1 3.8 202
18/10/2020 9:00 7.2 76 158.6 0 0.0 0.0 0.1 204
18/10/2020 9:10 7.2 77 162.6 8 0.0 0.1 0.2 211
18/10/2020 9:20 7.4 76 400.2 600 0.0 0.9 3.1 204
18/10/2020 9:30 8.6 74 457.9 600 0.0 0.1 0.4 153
18/10/2020 9:40 9.2 70 500.3 600 0.0 0.4 1.4 162
18/10/2020 9:50 10.0 68 520.0 600 0.0 0.5 1.7 167
18/10/2020 10:00 10.2 68 539.2 600 0.0 1.1 4.1 179
18/10/2020 10:10 10.9 66 598.2 600 0.0 0.8 2.7 163
18/10/2020 10:20 11.8 63 562.9 600 0.0 0.7 2.6 158
18/10/2020 10:30 12.2 61 610.2 600 0.0 0.9 3.3 161
18/10/2020 10:40 12.6 60 566.6 600 0.0 0.7 2.3 160
18/10/2020 10:50 12.9 62 562.5 600 0.0 0.8 2.8 155
18/10/2020 11:00 13.2 59 610.3 600 0.0 0.9 3.1 135
18/10/2020 11:10 12.9 59 502.3 492 0.0 0.9 3.3 137
18/10/2020 11:20 13.7 58 630.4 600 0.0 0.4 1.5 133
18/10/2020 11:30 14.2 57 634.6 600 0.0 0.6 2.1 120
18/10/2020 11:40 14.6 57 636.6 600 0.0 0.7 2.4 157
18/10/2020 11:50 15.0 56 639.7 600 0.0 1.0 3.6 144
18/10/2020 12:00 15.2 56 637.1 600 0.0 1.0 3.7 137
18/10/2020 12:10 15.6 54 637.8 600 0.0 1.0 3.6 141
18/10/2020 12:20 15.8 54 627.8 600 0.0 0.8 2.9 139
18/10/2020 12:30 16.0 53 618.0 600 0.0 1.1 3.8 147
18/10/2020 12:40 16.3 53 590.0 600 0.0 0.8 3.0 141
18/10/2020 12:50 16.3 51 622.1 600 0.0 1.0 3.6 133
18/10/2020 13:00 16.8 49 639.1 600 0.0 0.7 2.6 126
18/10/2020 13:10 17.1 48 600.0 600 0.0 1.0 3.6 136
18/10/2020 13:20 17.6 45 551.7 600 0.0 0.7 2.4 134
18/10/2020 13:30 17.4 43 546.4 600 0.0 1.5 5.2 181
18/10/2020 13:40 17.9 43 560.2 600 0.0 0.7 2.4 173
18/10/2020 13:50 18.1 43 467.6 600 0.0 1.1 3.8 176
18/10/2020 14:00 17.8 44 347.9 590 0.0 0.8 3.0 150
18/10/2020 14:10 17.6 46 447.0 600 0.0 0.6 2.3 148
18/10/2020 14:20 17.9 45 459.7 600 0.0 0.8 3.0 138
18/10/2020 14:30 18.1 42 305.8 574 0.0 0.6 2.0 159
18/10/2020 14:40 17.6 44 245.8 534 0.0 0.8 2.8 163
18/10/2020 14:50 17.4 44 228.2 342 0.0 0.9 3.4 189
18/10/2020 15:00 17.2 44 175.7 58 0.0 1.4 5.2 194
18/10/2020 15:10 16.9 47 179.3 154 0.0 0.8 3.0 194
18/10/2020 15:20 16.9 49 181.5 334 0.0 0.2 0.7 172
18/10/2020 15:30 16.9 49 147.2 0 0.0 0.2 0.6 145
18/10/2020 15:40 16.4 50 144.2 160 0.0 0.1 0.4 160
18/10/2020 15:50 16.6 53 204.2 600 0.0 0.0 0.0 0
18/10/2020 16:00 17.1 51 163.4 600 0.0 0.0 0.0 17
18/10/2020 16:10 16.5 56 109.6 448 0.0 0.0 0.1 34
18/10/2020 16:20 16.3 57 166.4 600 0.0 0.0 0.0 0
18/10/2020 16:30 16.2 57 154.0 600 0.0 0.1 0.4 329
18/10/2020 16:40 15.6 62 109.2 600 0.0 0.7 2.3 334
18/10/2020 16:50 15.3 64 65.0 514 0.0 0.1 0.2 331
18/10/2020 17:00 14.5 61 27.5 124 0.0 0.7 2.5 344
18/10/2020 17:10 13.6 64 19.3 0 0.0 1.2 4.1 341
18/10/2020 17:20 12.4 72 0.9 0 0.0 1.7 6.0 360
18/10/2020 17:30 11.7 74 0.0 0 0.0 1.9 6.9 5
18/10/2020 17:40 11.3 76 0.0 0 0.0 2.1 7.5 1
18/10/2020 17:50 10.9 76 0.0 0 0.0 2.3 8.4 11
18/10/2020 18:00 10.6 75 0.0 0 0.0 2.4 8.8 10
18/10/2020 18:10 10.3 75 0.0 0 0.0 2.3 8.2 8
18/10/2020 18:20 10.1 75 0.0 0 0.0 2.1 7.6 1
18/10/2020 18:30 9.8 76 0.0 0 0.0 2.1 7.6 5
18/10/2020 18:40 9.7 75 0.0 0 0.0 1.9 6.7 350
18/10/2020 18:50 10.0 73 0.0 0 0.0 2.2 7.9 5
18/10/2020 19:00 9.7 74 0.0 0 0.0 2.2 7.9 5
18/10/2020 19:10 9.5 74 0.0 0 0.0 2.5 8.8 10
18/10/2020 19:20 9.2 75 0.0 0 0.0 2.3 8.2 7
18/10/2020 19:30 9.2 73 0.0 0 0.0 1.9 6.8 1
18/10/2020 19:40 9.1 73 0.0 0 0.0 1.8 6.3 359
18/10/2020 19:50 9.3 71 0.0 0 0.0 1.5 5.3 7
18/10/2020 20:00 8.8 73 0.0 0 0.0 1.8 6.3 2
18/10/2020 20:10 8.5 74 0.0 0 0.0 2.2 8.0 8
18/10/2020 20:20 8.7 72 0.0 0 0.0 2.3 8.3 11
18/10/2020 20:30 8.5 72 0.0 0 0.0 2.1 7.4 4
18/10/2020 20:40 8.5 72 0.0 0 0.0 1.9 6.7 2
18/10/2020 20:50 8.6 71 0.0 0 0.0 1.9 6.7 0
18/10/2020 21:00 8.5 71 0.0 0 0.0 1.7 5.9 4
18/10/2020 21:10 8.4 71 0.0 0 0.0 1.7 6.2 12
18/10/2020 21:20 8.2 72 0.0 0 0.0 1.8 6.4 11
18/10/2020 21:30 7.9 73 0.0 0 0.0 1.5 5.5 9
18/10/2020 21:40 7.8 73 0.0 0 0.0 1.0 3.5 3
18/10/2020 21:50 8.0 72 0.0 0 0.0 1.5 5.3 13
18/10/2020 22:00 7.6 74 0.0 0 0.0 1.5 5.3 354
18/10/2020 22:10 7.7 73 0.0 0 0.0 1.5 5.3 2
18/10/2020 22:20 7.7 74 0.0 0 0.0 1.3 4.6 7
18/10/2020 22:30 7.8 73 0.0 0 0.0 1.3 4.7 8
18/10/2020 22:40 7.7 74 0.0 0 0.0 0.6 2.2 10
18/10/2020 22:50 8.1 72 0.0 0 0.0 0.0 0.0 174
18/10/2020 23:00 8.1 72 0.0 0 0.0 0.0 0.0 0
18/10/2020 23:10 7.5 75 0.0 0 0.0 0.0 0.0 0
18/10/2020 23:20 7.2 77 0.0 0 0.0 0.1 0.5 10
18/10/2020 23:30 7.1 78 0.0 0 0.0 0.8 2.8 7
18/10/2020 23:40 7.2 77 0.0 0 0.0 0.5 1.7 14
18/10/2020 23:50 7.0 78 0.0 0 0.0 0.2 0.6 12
Anterior Página 1 de 1 Siguiente

NOTA: Tipo de datos según el color:
   - Valores diarios o 10 minutos correctos
   - Valores diarios calculados a partir de un número de datos 10 minutos menor que 144 y mayor que 120, o de un número de datos semihorarios menor que 48 y mayor que 40 (caso de las estaciones de INTIA Y Ministerio)
   - Valores diez minutos estimados


Contacto        Enlaces        Aviso legal